CheckWX is a tool to help pilots better visualize weather data.  It is not intended as a substitute for an official pre-flight weather briefing.

08:00:53 UTC

LFOK TAF
Châlons-Vatry Air Base Airport
Châlons/Vatry, France
TAF LFOK 200500Z 2006/2106 21007KT 9999 SCT040 PROB30 TEMPO 2006/2008 BKN012 BECMG 2008/2010 29013KT TEMPO 2010/2020 4000 SHRA BKN030TCU BECMG 2020/2022 VRB02KT

Jun-20@
06:00 UTC

Jun-20 @ 06:00 UTC

Jun-20@
08:00 UTC

Jun-20 @ 08:00 UTC

TAF LFOK 200500Z 2006/2106 21007KT 9999 SCT040

Expired

Wind
  • 210° at 7 KTS
Cloud Levels
  • Scattered at 4,000' AGL

Jun-20@
06:00 UTC

Jun-20 @ 06:00 UTC

Jun-20@
08:00 UTC

Jun-20 @ 08:00 UTC

PROB30 TEMPO 2006/2008 BKN012

Expired

Cloud Levels
  • Broken at 1,200' AGL

Jun-20@
08:00 UTC

Jun-20 @ 08:00 UTC

Jun-20@
20:00 UTC

Jun-20 @ 20:00 UTC

BECMG 2008/2010 29013KT

Becoming

Becoming Conditions expected by Thu, Jun 20, 2019 @ 10:00 UTC

Wind
  • 290° at 13 KTS
Cloud Levels
  • Scattered at 4,000' AGL

Jun-20@
10:00 UTC

Jun-20 @ 10:00 UTC

Jun-20@
20:00 UTC

Jun-20 @ 20:00 UTC

TEMPO 2010/2020 4000 SHRA BKN030TCU

Temporary

Temporary Changes expected for less than half the time period

Conditions
Rain
Cloud Levels
  • Broken at 3,000' AGL

Jun-20@
20:00 UTC

Jun-20 @ 20:00 UTC

Jun-21@
06:00 UTC

Jun-21 @ 06:00 UTC

BECMG 2020/2022 VRB02KT

Becoming

Becoming Conditions expected by Thu, Jun 20, 2019 @ 22:00 UTC

Wind
  • Variable at 2 KTS
Cloud Levels
  • Scattered at 4,000' AGL